sensor_id;sensor_type;location;lat;lon;timestamp;pressure;altitude;pressure_sealevel;temperature;humidity
19761;BME280;10039;42.632;23.408;2023-02-15T00:01:45;96205.88;;;2.97;69.87
19761;BME280;10039;42.632;23.408;2023-02-15T00:04:15;96205.19;;;3.00;69.80
19761;BME280;10039;42.632;23.408;2023-02-15T00:06:41;96173.94;;;2.87;69.58
19761;BME280;10039;42.632;23.408;2023-02-15T00:09:06;96238.69;;;3.12;69.75
19761;BME280;10039;42.632;23.408;2023-02-15T00:11:32;96211.88;;;2.98;69.87
19761;BME280;10039;42.632;23.408;2023-02-15T00:14:19;96229.69;;;3.13;69.53
19761;BME280;10039;42.632;23.408;2023-02-15T00:16:45;96197.09;;;2.69;70.12
19761;BME280;10039;42.632;23.408;2023-02-15T00:19:12;96213.13;;;3.00;69.86
19761;BME280;10039;42.632;23.408;2023-02-15T00:21:38;96220.00;;;2.93;69.87
19761;BME280;10039;42.632;23.408;2023-02-15T00:24:05;96212.22;;;2.96;70.50
19761;BME280;10039;42.632;23.408;2023-02-15T00:26:32;96207.19;;;2.91;70.05
19761;BME280;10039;42.632;23.408;2023-02-15T00:28:58;96194.31;;;2.90;69.99
19761;BME280;10039;42.632;23.408;2023-02-15T00:31:24;96198.94;;;2.93;69.97
19761;BME280;10039;42.632;23.408;2023-02-15T00:33:50;96242.16;;;3.28;69.78
19761;BME280;10039;42.632;23.408;2023-02-15T00:36:15;96183.59;;;2.83;70.02
19761;BME280;10039;42.632;23.408;2023-02-15T00:38:41;96250.97;;;3.20;70.12
19761;BME280;10039;42.632;23.408;2023-02-15T00:41:08;96231.53;;;3.24;69.44
19761;BME280;10039;42.632;23.408;2023-02-15T00:43:34;96209.13;;;3.06;69.59
19761;BME280;10039;42.632;23.408;2023-02-15T00:46:01;96231.31;;;3.05;69.55
19761;BME280;10039;42.632;23.408;2023-02-15T00:48:26;96189.75;;;2.87;69.58
19761;BME280;10039;42.632;23.408;2023-02-15T00:50:55;96196.41;;;2.84;69.74
19761;BME280;10039;42.632;23.408;2023-02-15T00:53:21;96227.56;;;3.06;69.83
19761;BME280;10039;42.632;23.408;2023-02-15T00:55:47;96198.75;;;2.86;70.07
19761;BME280;10039;42.632;23.408;2023-02-15T00:58:13;96231.75;;;3.07;70.30
19761;BME280;10039;42.632;23.408;2023-02-15T01:00:41;96207.63;;;2.81;70.27
19761;BME280;10039;42.632;23.408;2023-02-15T01:03:08;96240.53;;;3.11;69.96
19761;BME280;10039;42.632;23.408;2023-02-15T01:05:33;96193.03;;;2.72;70.81
19761;BME280;10039;42.632;23.408;2023-02-15T01:07:59;96202.47;;;2.85;70.94
19761;BME280;10039;42.632;23.408;2023-02-15T01:10:25;96206.75;;;2.89;70.31
19761;BME280;10039;42.632;23.408;2023-02-15T01:12:52;96208.50;;;2.85;70.81
19761;BME280;10039;42.632;23.408;2023-02-15T01:15:17;96209.06;;;2.79;70.84
19761;BME280;10039;42.632;23.408;2023-02-15T01:17:43;96219.47;;;2.87;70.60
19761;BME280;10039;42.632;23.408;2023-02-15T01:20:11;96213.00;;;2.73;70.75
19761;BME280;10039;42.632;23.408;2023-02-15T01:22:37;96205.44;;;2.83;70.88
19761;BME280;10039;42.632;23.408;2023-02-15T01:25:02;96223.88;;;2.95;70.72
19761;BME280;10039;42.632;23.408;2023-02-15T01:27:28;96212.09;;;2.93;70.83
19761;BME280;10039;42.632;23.408;2023-02-15T01:29:55;96175.34;;;2.72;70.92
19761;BME280;10039;42.632;23.408;2023-02-15T01:32:21;96216.94;;;2.91;71.25
19761;BME280;10039;42.632;23.408;2023-02-15T01:34:46;96184.03;;;2.61;71.22
19761;BME280;10039;42.632;23.408;2023-02-15T01:37:12;96217.75;;;2.67;72.14
19761;BME280;10039;42.632;23.408;2023-02-15T01:39:37;96163.63;;;2.46;72.05
19761;BME280;10039;42.632;23.408;2023-02-15T01:42:03;96169.00;;;2.49;72.15
19761;BME280;10039;42.632;23.408;2023-02-15T01:45:02;96207.41;;;2.74;72.18
19761;BME280;10039;42.632;23.408;2023-02-15T01:47:43;96188.28;;;2.41;72.70
19761;BME280;10039;42.632;23.408;2023-02-15T01:50:15;96185.56;;;2.38;72.96
19761;BME280;10039;42.632;23.408;2023-02-15T01:55:24;96165.94;;;2.35;72.66
19761;BME280;10039;42.632;23.408;2023-02-15T01:57:50;96197.19;;;2.73;72.38
19761;BME280;10039;42.632;23.408;2023-02-15T02:00:17;96182.06;;;2.46;72.47
19761;BME280;10039;42.632;23.408;2023-02-15T02:02:46;96156.69;;;2.41;71.89
19761;BME280;10039;42.632;23.408;2023-02-15T02:05:13;96183.16;;;2.69;72.15
19761;BME280;10039;42.632;23.408;2023-02-15T02:07:42;96141.25;;;2.52;71.85
19761;BME280;10039;42.632;23.408;2023-02-15T02:10:12;96161.09;;;2.61;71.52
19761;BME280;10039;42.632;23.408;2023-02-15T02:12:40;96176.69;;;2.66;71.80
19761;BME280;10039;42.632;23.408;2023-02-15T02:15:07;96159.56;;;2.60;71.21
19761;BME280;10039;42.632;23.408;2023-02-15T02:20:24;96186.88;;;2.68;71.54
19761;BME280;10039;42.632;23.408;2023-02-15T02:23:22;96208.94;;;2.87;71.67
19761;BME280;10039;42.632;23.408;2023-02-15T02:37:27;96199.19;;;2.52;72.39
19761;BME280;10039;42.632;23.408;2023-02-15T02:40:03;96185.25;;;2.51;72.57
19761;BME280;10039;42.632;23.408;2023-02-15T02:42:40;96215.31;;;2.62;72.87
19761;BME280;10039;42.632;23.408;2023-02-15T02:47:50;96211.59;;;2.63;72.97
19761;BME280;10039;42.632;23.408;2023-02-15T02:50:25;96176.25;;;2.28;73.50
19761;BME280;10039;42.632;23.408;2023-02-15T02:52:53;96199.53;;;2.62;73.29
19761;BME280;10039;42.632;23.408;2023-02-15T02:55:23;96185.66;;;2.41;73.13
19761;BME280;10039;42.632;23.408;2023-02-15T03:00:23;96210.25;;;2.57;72.95
19761;BME280;10039;42.632;23.408;2023-02-15T03:02:55;96189.41;;;2.52;72.99
19761;BME280;10039;42.632;23.408;2023-02-15T03:05:25;96184.47;;;2.39;72.70
19761;BME280;10039;42.632;23.408;2023-02-15T03:07:53;96187.88;;;2.51;73.05
19761;BME280;10039;42.632;23.408;2023-02-15T03:10:22;96218.59;;;2.47;73.43
19761;BME280;10039;42.632;23.408;2023-02-15T03:12:48;96215.75;;;2.52;73.27
19761;BME280;10039;42.632;23.408;2023-02-15T03:15:15;96235.53;;;2.70;73.35
19761;BME280;10039;42.632;23.408;2023-02-15T03:17:44;96215.97;;;2.35;73.45
19761;BME280;10039;42.632;23.408;2023-02-15T03:20:17;96218.72;;;2.51;73.72
19761;BME280;10039;42.632;23.408;2023-02-15T03:22:51;96195.56;;;2.32;73.53
19761;BME280;10039;42.632;23.408;2023-02-15T03:25:25;96212.22;;;2.48;73.17
19761;BME280;10039;42.632;23.408;2023-02-15T03:27:55;96178.00;;;2.48;72.91
19761;BME280;10039;42.632;23.408;2023-02-15T03:30:25;96202.03;;;2.47;73.23
19761;BME280;10039;42.632;23.408;2023-02-15T03:32:52;96221.44;;;2.78;73.25
19761;BME280;10039;42.632;23.408;2023-02-15T03:35:24;96207.41;;;2.62;73.34
19761;BME280;10039;42.632;23.408;2023-02-15T03:37:55;96251.31;;;2.82;73.09
19761;BME280;10039;42.632;23.408;2023-02-15T03:43:18;96201.72;;;2.60;72.62
19761;BME280;10039;42.632;23.408;2023-02-15T03:45:49;96213.78;;;2.61;73.27
19761;BME280;10039;42.632;23.408;2023-02-15T03:48:28;96196.00;;;2.46;73.71
19761;BME280;10039;42.632;23.408;2023-02-15T03:50:58;96212.56;;;2.47;73.84
19761;BME280;10039;42.632;23.408;2023-02-15T03:53:45;96242.97;;;2.80;73.48
19761;BME280;10039;42.632;23.408;2023-02-15T03:56:12;96230.25;;;2.70;73.62
19761;BME280;10039;42.632;23.408;2023-02-15T03:58:37;96243.53;;;2.74;73.35
19761;BME280;10039;42.632;23.408;2023-02-15T04:01:37;96227.06;;;2.77;73.36
19761;BME280;10039;42.632;23.408;2023-02-15T04:04:24;96242.31;;;2.83;73.37
19761;BME280;10039;42.632;23.408;2023-02-15T04:06:50;96204.34;;;2.60;73.24
19761;BME280;10039;42.632;23.408;2023-02-15T04:09:15;96229.59;;;2.85;73.16
19761;BME280;10039;42.632;23.408;2023-02-15T04:11:59;96245.50;;;2.89;73.08
19761;BME280;10039;42.632;23.408;2023-02-15T04:14:25;96254.50;;;2.88;73.24
19761;BME280;10039;42.632;23.408;2023-02-15T04:17:09;96270.53;;;2.95;73.01
19761;BME280;10039;42.632;23.408;2023-02-15T04:19:35;96255.81;;;2.94;72.79
19761;BME280;10039;42.632;23.408;2023-02-15T04:22:20;96248.25;;;2.92;72.96
19761;BME280;10039;42.632;23.408;2023-02-15T04:25:04;96261.97;;;2.98;73.08
19761;BME280;10039;42.632;23.408;2023-02-15T04:27:43;96269.88;;;2.98;73.04
19761;BME280;10039;42.632;23.408;2023-02-15T04:30:09;96243.88;;;2.96;72.82
19761;BME280;10039;42.632;23.408;2023-02-15T04:32:35;96276.69;;;3.11;72.82
19761;BME280;10039;42.632;23.408;2023-02-15T04:35:01;96239.81;;;2.75;72.85
19761;BME280;10039;42.632;23.408;2023-02-15T04:37:26;96243.19;;;2.75;72.85
19761;BME280;10039;42.632;23.408;2023-02-15T04:39:52;96240.13;;;2.85;72.60
19761;BME280;10039;42.632;23.408;2023-02-15T04:42:17;96270.09;;;3.05;72.61
19761;BME280;10039;42.632;23.408;2023-02-15T04:44:43;96262.94;;;3.05;72.40
19761;BME280;10039;42.632;23.408;2023-02-15T04:47:08;96245.28;;;2.82;72.91
19761;BME280;10039;42.632;23.408;2023-02-15T04:49:34;96268.91;;;2.90;72.91
19761;BME280;10039;42.632;23.408;2023-02-15T04:51:59;96300.66;;;3.06;73.13
19761;BME280;10039;42.632;23.408;2023-02-15T04:54:24;96239.47;;;2.88;73.07
19761;BME280;10039;42.632;23.408;2023-02-15T04:56:50;96294.59;;;3.05;73.26
19761;BME280;10039;42.632;23.408;2023-02-15T04:59:15;96243.97;;;2.88;72.90
19761;BME280;10039;42.632;23.408;2023-02-15T05:01:41;96282.06;;;3.26;72.49
19761;BME280;10039;42.632;23.408;2023-02-15T05:04:06;96261.84;;;3.18;72.30
19761;BME280;10039;42.632;23.408;2023-02-15T05:06:32;96286.13;;;3.35;72.14
19761;BME280;10039;42.632;23.408;2023-02-15T05:08:57;96261.41;;;3.16;72.36
19761;BME280;10039;42.632;23.408;2023-02-15T05:11:24;96278.78;;;3.17;72.02
19761;BME280;10039;42.632;23.408;2023-02-15T05:13:50;96286.03;;;3.08;72.57
19761;BME280;10039;42.632;23.408;2023-02-15T05:16:16;96294.38;;;3.10;73.11
19761;BME280;10039;42.632;23.408;2023-02-15T05:18:41;96269.13;;;2.97;73.17
19761;BME280;10039;42.632;23.408;2023-02-15T05:21:07;96285.56;;;3.06;72.74
19761;BME280;10039;42.632;23.408;2023-02-15T05:23:32;96282.28;;;3.09;73.14
19761;BME280;10039;42.632;23.408;2023-02-15T05:25:58;96284.94;;;2.97;72.94
19761;BME280;10039;42.632;23.408;2023-02-15T05:28:42;96307.56;;;3.10;73.22
19761;BME280;10039;42.632;23.408;2023-02-15T05:31:10;96325.56;;;3.20;73.18
19761;BME280;10039;42.632;23.408;2023-02-15T05:33:54;96319.00;;;3.26;72.79
19761;BME280;10039;42.632;23.408;2023-02-15T05:36:20;96334.03;;;3.26;72.56
19761;BME280;10039;42.632;23.408;2023-02-15T05:38:45;96293.28;;;2.99;72.84
19761;BME280;10039;42.632;23.408;2023-02-15T05:41:11;96292.84;;;3.33;72.53
19761;BME280;10039;42.632;23.408;2023-02-15T05:43:37;96259.66;;;3.08;71.90
19761;BME280;10039;42.632;23.408;2023-02-15T05:46:03;96295.13;;;3.23;72.22
19761;BME280;10039;42.632;23.408;2023-02-15T05:48:29;96282.06;;;3.14;71.82
19761;BME280;10039;42.632;23.408;2023-02-15T05:53:27;96278.78;;;2.93;72.59
19761;BME280;10039;42.632;23.408;2023-02-15T05:55:54;96320.97;;;3.29;72.64
19761;BME280;10039;42.632;23.408;2023-02-15T05:58:25;96279.97;;;3.20;72.02
19761;BME280;10039;42.632;23.408;2023-02-15T06:00:50;96338.53;;;3.49;71.94
19761;BME280;10039;42.632;23.408;2023-02-15T06:03:16;96301.72;;;3.28;71.76
19761;BME280;10039;42.632;23.408;2023-02-15T06:05:41;96323.34;;;3.46;71.73
19761;BME280;10039;42.632;23.408;2023-02-15T06:08:07;96325.78;;;3.51;71.73
19761;BME280;10039;42.632;23.408;2023-02-15T06:10:32;96330.38;;;3.54;71.63
19761;BME280;10039;42.632;23.408;2023-02-15T06:12:58;96322.91;;;3.56;71.12
19761;BME280;10039;42.632;23.408;2023-02-15T06:15:23;96315.75;;;3.56;71.56
19761;BME280;10039;42.632;23.408;2023-02-15T06:17:48;96327.22;;;3.48;71.06
19761;BME280;10039;42.632;23.408;2023-02-15T06:20:14;96351.41;;;3.50;71.17
19761;BME280;10039;42.632;23.408;2023-02-15T06:22:39;96299.09;;;3.28;71.23
19761;BME280;10039;42.632;23.408;2023-02-15T06:25:05;96347.53;;;3.48;71.55
19761;BME280;10039;42.632;23.408;2023-02-15T06:27:30;96335.34;;;3.43;71.34
19761;BME280;10039;42.632;23.408;2023-02-15T06:29:56;96319.31;;;3.36;71.23
19761;BME280;10039;42.632;23.408;2023-02-15T06:32:21;96302.81;;;3.28;71.24
19761;BME280;10039;42.632;23.408;2023-02-15T06:34:47;96320.50;;;3.39;71.24
19761;BME280;10039;42.632;23.408;2023-02-15T06:37:12;96296.91;;;3.19;71.20
19761;BME280;10039;42.632;23.408;2023-02-15T06:39:38;96309.31;;;3.30;71.63
19761;BME280;10039;42.632;23.408;2023-02-15T06:42:03;96332.81;;;3.47;71.75
19761;BME280;10039;42.632;23.408;2023-02-15T06:44:29;96330.81;;;3.44;71.31
19761;BME280;10039;42.632;23.408;2023-02-15T06:46:54;96299.31;;;3.24;71.50
19761;BME280;10039;42.632;23.408;2023-02-15T06:49:22;96316.66;;;3.36;71.34
19761;BME280;10039;42.632;23.408;2023-02-15T06:51:47;96275.03;;;3.18;71.15
19761;BME280;10039;42.632;23.408;2023-02-15T06:54:13;96298.06;;;3.45;70.93
19761;BME280;10039;42.632;23.408;2023-02-15T06:56:38;96317.50;;;3.64;70.86
19761;BME280;10039;42.632;23.408;2023-02-15T06:59:04;96316.31;;;3.62;71.13
19761;BME280;10039;42.632;23.408;2023-02-15T07:01:29;96324.19;;;3.74;70.64
19761;BME280;10039;42.632;23.408;2023-02-15T07:03:55;96290.81;;;3.42;70.73
19761;BME280;10039;42.632;23.408;2023-02-15T07:06:20;96318.59;;;3.63;70.74
19761;BME280;10039;42.632;23.408;2023-02-15T07:08:45;96327.75;;;3.54;71.03
19761;BME280;10039;42.632;23.408;2023-02-15T07:11:11;96332.16;;;3.62;70.81
19761;BME280;10039;42.632;23.408;2023-02-15T07:13:55;96288.84;;;3.39;70.51
19761;BME280;10039;42.632;23.408;2023-02-15T07:16:21;96333.56;;;3.59;70.46
19761;BME280;10039;42.632;23.408;2023-02-15T07:18:46;96297.84;;;3.38;70.98
19761;BME280;10039;42.632;23.408;2023-02-15T07:21:12;96308.06;;;3.51;70.37
19761;BME280;10039;42.632;23.408;2023-02-15T07:23:39;96341.69;;;3.78;69.69
19761;BME280;10039;42.632;23.408;2023-02-15T07:26:05;96292.00;;;3.56;69.74
19761;BME280;10039;42.632;23.408;2023-02-15T07:28:33;96344.50;;;3.85;69.70
19761;BME280;10039;42.632;23.408;2023-02-15T07:31:01;96286.63;;;3.65;69.39
19761;BME280;10039;42.632;23.408;2023-02-15T07:33:26;96317.06;;;4.02;69.05
19761;BME280;10039;42.632;23.408;2023-02-15T07:35:54;96322.03;;;4.03;69.00
19761;BME280;10039;42.632;23.408;2023-02-15T07:38:21;96331.47;;;4.04;69.04
19761;BME280;10039;42.632;23.408;2023-02-15T07:40:47;96313.66;;;4.01;68.72
19761;BME280;10039;42.632;23.408;2023-02-15T07:43:13;96333.81;;;3.94;68.69
19761;BME280;10039;42.632;23.408;2023-02-15T07:45:39;96320.78;;;4.13;68.40
19761;BME280;10039;42.632;23.408;2023-02-15T07:48:05;96283.41;;;3.71;68.81
19761;BME280;10039;42.632;23.408;2023-02-15T07:50:31;96290.75;;;3.78;68.53
19761;BME280;10039;42.632;23.408;2023-02-15T07:52:57;96286.09;;;3.87;67.93
19761;BME280;10039;42.632;23.408;2023-02-15T07:55:23;96325.19;;;4.09;67.91
19761;BME280;10039;42.632;23.408;2023-02-15T07:57:50;96307.00;;;3.92;68.35
19761;BME280;10039;42.632;23.408;2023-02-15T08:00:17;96338.34;;;4.21;67.94
19761;BME280;10039;42.632;23.408;2023-02-15T08:02:56;96333.28;;;4.28;67.13
19761;BME280;10039;42.632;23.408;2023-02-15T08:05:41;96304.97;;;4.01;67.72
19761;BME280;10039;42.632;23.408;2023-02-15T08:08:08;96305.00;;;4.16;67.71
19761;BME280;10039;42.632;23.408;2023-02-15T08:10:35;96308.88;;;4.19;67.01
19761;BME280;10039;42.632;23.408;2023-02-15T08:13:19;96331.16;;;4.33;67.29
19761;BME280;10039;42.632;23.408;2023-02-15T08:15:51;96324.13;;;4.25;67.14
19761;BME280;10039;42.632;23.408;2023-02-15T08:18:17;96335.66;;;4.33;67.05
19761;BME280;10039;42.632;23.408;2023-02-15T08:20:51;96270.25;;;3.87;67.39
19761;BME280;10039;42.632;23.408;2023-02-15T08:23:16;96297.03;;;4.01;68.08
19761;BME280;10039;42.632;23.408;2023-02-15T08:25:41;96308.44;;;4.17;67.58
19761;BME280;10039;42.632;23.408;2023-02-15T08:28:07;96317.06;;;4.29;67.41
19761;BME280;10039;42.632;23.408;2023-02-15T08:30:32;96329.59;;;4.32;67.02
19761;BME280;10039;42.632;23.408;2023-02-15T08:32:58;96345.22;;;4.37;66.87
19761;BME280;10039;42.632;23.408;2023-02-15T08:35:24;96334.06;;;4.43;66.89
19761;BME280;10039;42.632;23.408;2023-02-15T08:37:49;96301.13;;;4.26;66.72
19761;BME280;10039;42.632;23.408;2023-02-15T08:40:15;96312.06;;;4.39;66.50
19761;BME280;10039;42.632;23.408;2023-02-15T08:42:41;96324.41;;;4.36;66.99
19761;BME280;10039;42.632;23.408;2023-02-15T08:45:06;96309.22;;;4.33;66.07
19761;BME280;10039;42.632;23.408;2023-02-15T08:47:32;96330.06;;;4.49;66.19
19761;BME280;10039;42.632;23.408;2023-02-15T08:49:57;96308.31;;;4.40;65.68
19761;BME280;10039;42.632;23.408;2023-02-15T08:52:23;96307.38;;;4.33;65.72
19761;BME280;10039;42.632;23.408;2023-02-15T08:54:48;96341.34;;;4.62;65.62
19761;BME280;10039;42.632;23.408;2023-02-15T08:57:14;96314.47;;;4.44;65.85
19761;BME280;10039;42.632;23.408;2023-02-15T08:59:39;96312.88;;;4.55;66.17
19761;BME280;10039;42.632;23.408;2023-02-15T09:02:05;96310.13;;;4.67;65.33
19761;BME280;10039;42.632;23.408;2023-02-15T09:04:31;96301.69;;;4.62;64.98
19761;BME280;10039;42.632;23.408;2023-02-15T09:06:57;96333.00;;;4.75;65.12
19761;BME280;10039;42.632;23.408;2023-02-15T09:09:22;96305.38;;;4.57;64.70
19761;BME280;10039;42.632;23.408;2023-02-15T09:11:52;96308.25;;;4.52;64.62
19761;BME280;10039;42.632;23.408;2023-02-15T09:14:19;96337.25;;;4.64;64.59
19761;BME280;10039;42.632;23.408;2023-02-15T09:16:48;96295.47;;;4.54;64.60
19761;BME280;10039;42.632;23.408;2023-02-15T09:19:17;96305.97;;;4.66;64.34
19761;BME280;10039;42.632;23.408;2023-02-15T09:21:43;96302.44;;;4.62;63.85
19761;BME280;10039;42.632;23.408;2023-02-15T09:24:11;96285.66;;;4.55;63.93
19761;BME280;10039;42.632;23.408;2023-02-15T09:26:42;96332.59;;;4.89;63.86
19761;BME280;10039;42.632;23.408;2023-02-15T09:29:09;96321.94;;;4.70;63.82
19761;BME280;10039;42.632;23.408;2023-02-15T09:31:44;96337.69;;;4.82;63.58
19761;BME280;10039;42.632;23.408;2023-02-15T09:34:15;96312.53;;;4.72;63.55
19761;BME280;10039;42.632;23.408;2023-02-15T09:36:44;96335.50;;;4.99;63.32
19761;BME280;10039;42.632;23.408;2023-02-15T09:39:18;96304.78;;;4.79;63.04
19761;BME280;10039;42.632;23.408;2023-02-15T09:44:50;96331.31;;;4.98;63.38
19761;BME280;10039;42.632;23.408;2023-02-15T09:47:28;96330.63;;;5.01;63.46
19761;BME280;10039;42.632;23.408;2023-02-15T09:55:47;96328.16;;;5.08;62.52
19761;BME280;10039;42.632;23.408;2023-02-15T09:58:38;96331.22;;;5.10;62.55
19761;BME280;10039;42.632;23.408;2023-02-15T10:27:55;96308.09;;;5.23;62.02
19761;BME280;10039;42.632;23.408;2023-02-15T10:30:43;96304.94;;;5.33;62.17
19761;BME280;10039;42.632;23.408;2023-02-15T10:33:30;96302.81;;;5.23;62.66
19761;BME280;10039;42.632;23.408;2023-02-15T10:55:02;96285.53;;;5.44;61.61
19761;BME280;10039;42.632;23.408;2023-02-15T11:08:16;96275.63;;;5.41;61.58
19761;BME280;10039;42.632;23.408;2023-02-15T11:10:56;96272.03;;;5.49;61.29
19761;BME280;10039;42.632;23.408;2023-02-15T11:13:26;96265.88;;;5.45;61.56
19761;BME280;10039;42.632;23.408;2023-02-15T11:23:24;96273.41;;;5.62;60.92
19761;BME280;10039;42.632;23.408;2023-02-15T11:26:15;96257.84;;;5.57;60.96
19761;BME280;10039;42.632;23.408;2023-02-15T11:28:52;96263.47;;;5.55;61.04
19761;BME280;10039;42.632;23.408;2023-02-15T11:31:23;96267.59;;;5.53;60.96
19761;BME280;10039;42.632;23.408;2023-02-15T11:34:03;96254.69;;;5.51;61.36
19761;BME280;10039;42.632;23.408;2023-02-15T11:36:36;96274.91;;;5.59;61.45
19761;BME280;10039;42.632;23.408;2023-02-15T11:39:09;96261.31;;;5.61;60.73
19761;BME280;10039;42.632;23.408;2023-02-15T11:41:39;96271.56;;;5.62;61.17
19761;BME280;10039;42.632;23.408;2023-02-15T11:44:06;96255.13;;;5.72;60.82
19761;BME280;10039;42.632;23.408;2023-02-15T11:46:36;96251.13;;;5.63;60.87
19761;BME280;10039;42.632;23.408;2023-02-15T11:49:20;96251.81;;;5.60;60.86
19761;BME280;10039;42.632;23.408;2023-02-15T11:51:46;96250.59;;;5.54;60.78
19761;BME280;10039;42.632;23.408;2023-02-15T11:54:12;96236.66;;;5.57;60.67
19761;BME280;10039;42.632;23.408;2023-02-15T11:56:38;96239.00;;;5.62;60.84
19761;BME280;10039;42.632;23.408;2023-02-15T11:59:09;96243.06;;;5.75;60.21
19761;BME280;10039;42.632;23.408;2023-02-15T12:01:38;96235.13;;;5.75;60.67
19761;BME280;10039;42.632;23.408;2023-02-15T12:04:23;96225.00;;;5.61;60.76
19761;BME280;10039;42.632;23.408;2023-02-15T12:07:30;96226.34;;;5.71;61.02
19761;BME280;10039;42.632;23.408;2023-02-15T12:10:22;96225.81;;;5.81;60.80
19761;BME280;10039;42.632;23.408;2023-02-15T12:15:34;96226.50;;;5.97;60.82
19761;BME280;10039;42.632;23.408;2023-02-15T12:18:00;96220.16;;;6.01;60.41
19761;BME280;10039;42.632;23.408;2023-02-15T12:20:35;96222.44;;;6.03;60.39
19761;BME280;10039;42.632;23.408;2023-02-15T12:23:15;96218.41;;;6.09;60.19
19761;BME280;10039;42.632;23.408;2023-02-15T12:25:52;96197.50;;;6.04;59.91
19761;BME280;10039;42.632;23.408;2023-02-15T12:30:52;96208.34;;;6.18;59.50
19761;BME280;10039;42.632;23.408;2023-02-15T12:35:57;96214.28;;;6.11;59.75
19761;BME280;10039;42.632;23.408;2023-02-15T12:38:25;96206.69;;;6.10;59.90
19761;BME280;10039;42.632;23.408;2023-02-15T12:43:26;96202.97;;;6.14;59.86
19761;BME280;10039;42.632;23.408;2023-02-15T12:45:52;96182.19;;;6.16;59.97
19761;BME280;10039;42.632;23.408;2023-02-15T12:48:19;96185.31;;;6.22;59.78
19761;BME280;10039;42.632;23.408;2023-02-15T12:50:46;96180.75;;;6.19;59.79
19761;BME280;10039;42.632;23.408;2023-02-15T12:55:58;96178.13;;;6.22;59.93
19761;BME280;10039;42.632;23.408;2023-02-15T12:58:43;96167.91;;;6.21;59.85
19761;BME280;10039;42.632;23.408;2023-02-15T13:01:18;96181.66;;;6.30;59.30
19761;BME280;10039;42.632;23.408;2023-02-15T13:06:21;96178.78;;;6.38;59.30
19761;BME280;10039;42.632;23.408;2023-02-15T13:08:52;96175.41;;;6.41;59.60
19761;BME280;10039;42.632;23.408;2023-02-15T13:11:26;96168.53;;;6.37;59.81
19761;BME280;10039;42.632;23.408;2023-02-15T13:13:57;96172.44;;;6.43;59.65
19761;BME280;10039;42.632;23.408;2023-02-15T13:16:30;96176.31;;;6.49;59.38
19761;BME280;10039;42.632;23.408;2023-02-15T13:18:57;96170.72;;;6.31;59.63
19761;BME280;10039;42.632;23.408;2023-02-15T13:21:28;96164.00;;;6.37;59.20
19761;BME280;10039;42.632;23.408;2023-02-15T13:24:04;96170.13;;;6.41;59.53
19761;BME280;10039;42.632;23.408;2023-02-15T13:26:32;96164.94;;;6.48;59.16
19761;BME280;10039;42.632;23.408;2023-02-15T13:29:15;96165.88;;;6.59;58.56
19761;BME280;10039;42.632;23.408;2023-02-15T13:31:42;96168.88;;;6.58;58.88
19761;BME280;10039;42.632;23.408;2023-02-15T13:34:16;96151.22;;;6.43;58.79
19761;BME280;10039;42.632;23.408;2023-02-15T13:39:45;96174.00;;;6.69;58.79
19761;BME280;10039;42.632;23.408;2023-02-15T13:47:36;96172.03;;;6.66;58.77
19761;BME280;10039;42.632;23.408;2023-02-15T13:53:35;96172.63;;;6.79;58.27
19761;BME280;10039;42.632;23.408;2023-02-15T14:05:20;96182.06;;;6.76;58.53
19761;BME280;10039;42.632;23.408;2023-02-15T14:18:48;96201.38;;;6.77;58.91
19761;BME280;10039;42.632;23.408;2023-02-15T14:21:42;96198.69;;;6.73;58.39
19761;BME280;10039;42.632;23.408;2023-02-15T14:29:59;96209.63;;;6.72;59.16
19761;BME280;10039;42.632;23.408;2023-02-15T14:32:47;96217.59;;;6.72;58.97
19761;BME280;10039;42.632;23.408;2023-02-15T14:35:16;96213.78;;;6.69;59.03
19761;BME280;10039;42.632;23.408;2023-02-15T14:38:01;96214.06;;;6.42;59.64
19761;BME280;10039;42.632;23.408;2023-02-15T14:40:37;96211.00;;;6.40;60.18
19761;BME280;10039;42.632;23.408;2023-02-15T14:48:53;96212.38;;;6.53;59.58
19761;BME280;10039;42.632;23.408;2023-02-15T15:02:58;96194.59;;;6.12;59.99
19761;BME280;10039;42.632;23.408;2023-02-15T15:05:33;96216.78;;;6.23;60.45
19761;BME280;10039;42.632;23.408;2023-02-15T15:08:01;96222.16;;;6.08;60.48
19761;BME280;10039;42.632;23.408;2023-02-15T15:15:56;96215.63;;;6.02;61.04
19761;BME280;10039;42.632;23.408;2023-02-15T15:18:48;96215.38;;;6.10;60.91
19761;BME280;10039;42.632;23.408;2023-02-15T15:30:00;96220.56;;;5.84;61.49
19761;BME280;10039;42.632;23.408;2023-02-15T15:32:27;96223.13;;;5.62;62.35
19761;BME280;10039;42.632;23.408;2023-02-15T15:46:41;96231.06;;;5.62;62.09
19761;BME280;10039;42.632;23.408;2023-02-15T15:49:15;96234.97;;;5.49;62.55
19761;BME280;10039;42.632;23.408;2023-02-15T15:51:42;96233.75;;;5.47;62.74
19761;BME280;10039;42.632;23.408;2023-02-15T15:54:18;96230.00;;;5.47;62.45
19761;BME280;10039;42.632;23.408;2023-02-15T15:56:50;96225.44;;;5.29;62.80
19761;BME280;10039;42.632;23.408;2023-02-15T15:59:23;96221.69;;;5.30;62.89
19761;BME280;10039;42.632;23.408;2023-02-15T16:01:50;96238.78;;;5.51;62.52
19761;BME280;10039;42.632;23.408;2023-02-15T16:04:42;96238.56;;;5.41;62.51
19761;BME280;10039;42.632;23.408;2023-02-15T16:09:58;96243.06;;;5.22;63.13
19761;BME280;10039;42.632;23.408;2023-02-15T16:12:26;96238.13;;;5.20;62.96
19761;BME280;10039;42.632;23.408;2023-02-15T16:14:54;96237.97;;;5.13;63.63
19761;BME280;10039;42.632;23.408;2023-02-15T16:17:25;96240.69;;;5.01;63.94
19761;BME280;10039;42.632;23.408;2023-02-15T16:20:34;96243.25;;;5.13;63.78
19761;BME280;10039;42.632;23.408;2023-02-15T16:28:12;96251.78;;;5.22;63.89
19761;BME280;10039;42.632;23.408;2023-02-15T16:30:38;96233.78;;;5.12;63.46
19761;BME280;10039;42.632;23.408;2023-02-15T16:35:34;96250.66;;;5.23;63.49
19761;BME280;10039;42.632;23.408;2023-02-15T16:38:01;96234.03;;;5.07;63.20
19761;BME280;10039;42.632;23.408;2023-02-15T16:43:10;96240.34;;;5.18;66.74
19761;BME280;10039;42.632;23.408;2023-02-15T16:45:38;96237.09;;;5.25;70.82